Time;durP1;ratioP1;P1;durP2;ratioP2;P2;SDS_P1;SDS_P2;PMS_P1;PMS_P2;Temp;Humidity;BMP_temperature;BMP_pressure;BME280_temperature;BME280_humidity;BME280_pressure;Samples;Min_cycle;Max_cycle;Signal;HPM_P1;HPM_P2
2023/12/29 00:02:13;;;;;;;0.85;0.60;;;17.40;58.10;;;;;;6179373;22;20769;-83
2023/12/29 00:04:40;;;;;;;0.88;0.60;;;17.40;58.00;;;;;;6133294;23;20147;-85
2023/12/29 00:07:05;;;;;;;1.10;0.75;;;17.40;57.70;;;;;;6182283;23;20155;-85
2023/12/29 00:09:38;;;;;;;1.30;0.80;;;17.30;57.70;;;;;;6134832;23;20150;-82
2023/12/29 00:12:04;;;;;;;1.17;0.60;;;17.30;58.00;;;;;;6184744;23;20183;-83
2023/12/29 00:14:30;;;;;;;0.80;0.60;;;17.40;58.00;;;;;;6185317;23;20586;-84
2023/12/29 00:16:57;;;;;;;1.20;0.70;;;17.30;57.90;;;;;;6185540;23;20209;-83
2023/12/29 00:19:23;;;;;;;1.05;0.75;;;17.30;57.90;;;;;;6184419;23;20509;-84
2023/12/29 00:21:49;;;;;;;1.38;0.70;;;17.30;57.90;;;;;;6185644;23;20131;-82
2023/12/29 00:24:16;;;;;;;0.80;0.70;;;17.30;57.90;;;;;;6161930;23;20173;-81
2023/12/29 00:26:42;;;;;;;0.73;0.50;;;17.30;57.90;;;;;;6186621;23;20162;-81
2023/12/29 00:29:08;;;;;;;0.77;0.68;;;17.30;57.80;;;;;;6160792;23;20138;-84
2023/12/29 00:31:34;;;;;;;1.17;0.65;;;17.30;58.20;;;;;;6159782;23;20131;-85
2023/12/29 00:34:01;;;;;;;0.60;0.60;;;17.30;58.00;;;;;;6184488;23;20135;-85
2023/12/29 00:36:30;;;;;;;1.20;0.60;;;17.30;58.20;;;;;;6185090;23;20130;-83
2023/12/29 00:38:55;;;;;;;0.57;0.57;;;17.30;58.10;;;;;;6183563;23;20170;-85
2023/12/29 00:41:21;;;;;;;1.20;0.52;;;17.30;58.20;;;;;;6158451;23;20135;-84
2023/12/29 00:43:47;;;;;;;1.17;0.70;;;17.30;58.00;;;;;;6158924;23;20147;-85
2023/12/29 00:46:16;;;;;;;1.73;0.57;;;17.20;58.30;;;;;;6158240;23;20567;-85
2023/12/29 00:48:42;;;;;;;0.88;0.57;;;17.30;58.30;;;;;;6109044;23;20689;-84
2023/12/29 00:51:08;;;;;;;0.90;0.60;;;17.20;58.10;;;;;;6135355;23;20235;-83
2023/12/29 00:53:35;;;;;;;2.47;0.80;;;17.30;58.20;;;;;;6134483;23;20178;-85
2023/12/29 00:56:01;;;;;;;0.88;0.60;;;17.20;58.20;;;;;;6159193;23;20588;-83
2023/12/29 00:58:26;;;;;;;1.63;0.65;;;17.30;58.10;;;;;;6134359;23;20199;-82
2023/12/29 01:05:43;;;;;;;1.35;0.90;;;17.30;58.20;;;;;;6212627;23;20208;-83
2023/12/29 01:08:10;;;;;;;1.02;0.70;;;17.20;58.10;;;;;;6138051;23;20169;-84
2023/12/29 01:10:35;;;;;;;0.80;0.60;;;17.30;58.10;;;;;;6137006;23;20170;-84
2023/12/29 01:13:01;;;;;;;1.10;0.80;;;17.20;58.30;;;;;;6187171;23;20204;-85
2023/12/29 01:15:28;;;;;;;1.05;0.70;;;17.20;58.00;;;;;;6162197;23;20570;-86
2023/12/29 01:17:54;;;;;;;0.88;0.63;;;17.30;57.90;;;;;;6212432;23;20648;-85
2023/12/29 01:20:20;;;;;;;1.02;0.63;;;17.30;57.90;;;;;;6078445;23;1864809;-84
2023/12/29 01:22:51;;;;;;;1.30;0.80;;;17.30;58.00;;;;;;6160019;23;20212;-82
2023/12/29 01:25:16;;;;;;;1.70;0.50;;;17.20;58.20;;;;;;6086060;23;20155;-83
2023/12/29 01:27:45;;;;;;;0.75;0.60;;;17.10;58.30;;;;;;6183677;23;20145;-83
2023/12/29 01:30:12;;;;;;;1.45;0.50;;;17.10;58.40;;;;;;6159474;23;20210;-85
2023/12/29 01:32:40;;;;;;;0.85;0.60;;;17.20;58.20;;;;;;6180965;23;20201;-86
2023/12/29 01:35:07;;;;;;;1.33;0.70;;;17.20;58.20;;;;;;6134853;23;20178;-85
2023/12/29 01:37:36;;;;;;;2.05;0.85;;;17.20;58.20;;;;;;6158001;23;20166;-85
2023/12/29 01:40:02;;;;;;;0.90;0.55;;;17.10;58.50;;;;;;6181645;23;20127;-84
2023/12/29 01:42:28;;;;;;;0.70;0.52;;;17.10;58.50;;;;;;6184558;23;20135;-84
2023/12/29 01:44:54;;;;;;;0.60;0.60;;;17.10;58.40;;;;;;6183456;23;20131;-83
2023/12/29 01:47:19;;;;;;;0.60;0.52;;;17.10;58.50;;;;;;6183083;23;20135;-84
2023/12/29 01:49:45;;;;;;;0.70;0.70;;;17.10;58.60;;;;;;6181588;23;20813;-83
2023/12/29 01:52:11;;;;;;;0.90;0.60;;;17.10;58.50;;;;;;6159313;23;20143;-82
2023/12/29 01:54:40;;;;;;;0.52;0.50;;;17.00;58.50;;;;;;6182641;23;20161;-84
2023/12/29 01:57:07;;;;;;;0.77;0.60;;;17.10;58.60;;;;;;6133616;23;20213;-82
2023/12/29 01:59:33;;;;;;;2.15;0.77;;;17.20;58.50;;;;;;6184153;23;20458;-85
2023/12/29 02:02:03;;;;;;;1.33;0.68;;;17.00;58.40;;;;;;6183549;23;20138;-83
2023/12/29 02:04:32;;;;;;;1.23;0.55;;;17.10;58.20;;;;;;6109052;23;20488;-83
2023/12/29 02:06:58;;;;;;;1.42;0.85;;;17.10;58.20;;;;;;6084217;23;20151;-82
2023/12/29 02:09:24;;;;;;;2.20;0.70;;;17.10;58.20;;;;;;6183039;23;20127;-84
2023/12/29 02:11:50;;;;;;;0.82;0.55;;;17.10;58.30;;;;;;6133195;23;20139;-84
2023/12/29 02:14:16;;;;;;;0.68;0.60;;;17.10;58.30;;;;;;6157961;23;20142;-83
2023/12/29 02:16:56;;;;;;;0.57;0.57;;;17.10;58.30;;;;;;6158315;23;20134;-85
2023/12/29 02:19:43;;;;;;;0.70;0.43;;;17.10;58.50;;;;;;6183513;23;20142;-87
2023/12/29 02:22:09;;;;;;;0.82;0.70;;;17.10;58.20;;;;;;6181447;23;20131;-82
2023/12/29 02:24:36;;;;;;;0.73;0.70;;;17.10;58.50;;;;;;6182850;23;20130;-85
2023/12/29 02:27:19;;;;;;;1.60;0.50;;;17.00;58.50;;;;;;6156897;23;20137;-84
2023/12/29 02:29:47;;;;;;;2.08;0.80;;;17.00;58.60;;;;;;6158906;23;20142;-85
2023/12/29 02:32:15;;;;;;;0.82;0.70;;;17.00;58.60;;;;;;6180480;23;20695;-83
2023/12/29 02:34:41;;;;;;;0.50;0.50;;;17.00;58.60;;;;;;6158130;23;20131;-84
2023/12/29 02:37:08;;;;;;;1.23;0.80;;;17.00;58.60;;;;;;6157945;23;20317;-83
2023/12/29 02:39:34;;;;;;;2.00;0.60;;;17.10;58.40;;;;;;6157012;23;20288;-84
2023/12/29 02:42:00;;;;;;;1.00;0.70;;;17.10;58.40;;;;;;6126932;23;20714;-84
2023/12/29 02:44:26;;;;;;;1.05;0.60;;;17.10;58.40;;;;;;6152544;23;20241;-85
2023/12/29 02:46:51;;;;;;;1.65;0.50;;;17.00;58.40;;;;;;6128593;23;20151;-85
2023/12/29 02:49:17;;;;;;;1.40;0.50;;;17.00;58.30;;;;;;6128285;23;20139;-84
2023/12/29 02:51:45;;;;;;;1.27;0.70;;;17.10;58.40;;;;;;6156454;23;20657;-84
2023/12/29 02:54:11;;;;;;;1.08;0.73;;;17.10;58.30;;;;;;6134389;23;20184;-85
2023/12/29 02:56:36;;;;;;;0.80;0.60;;;17.00;58.50;;;;;;6133785;23;20135;-83
2023/12/29 02:59:02;;;;;;;0.60;0.60;;;17.00;58.40;;;;;;6157733;23;20233;-83
2023/12/29 03:01:28;;;;;;;0.95;0.60;;;17.00;58.40;;;;;;6156616;23;20202;-83
2023/12/29 03:03:54;;;;;;;1.10;0.70;;;17.00;58.50;;;;;;6134183;23;20146;-86
2023/12/29 03:06:24;;;;;;;0.90;0.70;;;17.00;58.60;;;;;;6158487;23;20143;-85
2023/12/29 03:08:50;;;;;;;0.70;0.60;;;17.00;58.50;;;;;;6157818;23;20170;-83
2023/12/29 03:11:16;;;;;;;1.02;0.57;;;17.00;58.40;;;;;;6108042;23;20651;-85
2023/12/29 03:13:45;;;;;;;1.60;0.70;;;17.00;58.50;;;;;;6133596;23;20173;-83
2023/12/29 03:16:11;;;;;;;0.88;0.60;;;17.00;58.60;;;;;;6107550;23;20154;-85
2023/12/29 03:18:39;;;;;;;0.60;0.52;;;17.00;58.40;;;;;;6157868;23;20166;-83
2023/12/29 03:21:05;;;;;;;1.58;0.70;;;17.00;58.30;;;;;;6156685;23;20146;-82
2023/12/29 03:23:31;;;;;;;0.50;0.50;;;17.00;58.50;;;;;;6157654;23;20138;-82
2023/12/29 03:25:57;;;;;;;0.73;0.50;;;16.90;58.40;;;;;;6132905;23;20147;-85
2023/12/29 03:28:25;;;;;;;0.95;0.73;;;17.00;58.40;;;;;;6134225;23;20165;-84
2023/12/29 03:30:51;;;;;;;0.80;0.65;;;17.00;58.30;;;;;;6108966;23;20206;-84
2023/12/29 03:33:16;;;;;;;0.90;0.60;;;17.00;58.50;;;;;;6131685;23;20210;-84
2023/12/29 03:35:42;;;;;;;1.02;0.88;;;17.10;58.50;;;;;;6157886;23;20478;-86
2023/12/29 03:38:08;;;;;;;2.05;0.70;;;17.00;58.10;;;;;;6156717;23;20179;-85
2023/12/29 03:40:34;;;;;;;0.95;0.70;;;17.00;58.60;;;;;;6132910;23;20578;-81
2023/12/29 03:42:59;;;;;;;1.15;0.70;;;16.90;58.40;;;;;;6158611;23;20437;-83
2023/12/29 03:45:25;;;;;;;1.13;0.70;;;16.90;59.10;;;;;;6185672;23;20132;-83
2023/12/29 03:47:51;;;;;;;0.60;0.57;;;17.00;58.30;;;;;;6110380;23;20150;-84
2023/12/29 03:50:17;;;;;;;1.20;0.60;;;17.00;58.30;;;;;;6158990;23;20150;-85
2023/12/29 03:52:48;;;;;;;1.08;0.75;;;16.90;58.50;;;;;;6135289;23;20197;-82
2023/12/29 03:55:15;;;;;;;1.35;0.70;;;16.90;58.60;;;;;;6133545;23;20555;-84
2023/12/29 03:57:42;;;;;;;1.02;0.50;;;16.90;58.50;;;;;;6184715;23;20167;-83
2023/12/29 04:00:12;;;;;;;0.98;0.73;;;16.90;58.60;;;;;;6133380;23;20583;-84
2023/12/29 04:02:38;;;;;;;1.33;0.70;;;16.90;58.60;;;;;;6158790;23;20554;-82
2023/12/29 04:05:06;;;;;;;0.93;0.60;;;16.90;58.70;;;;;;6134781;23;20131;-83
2023/12/29 04:07:31;;;;;;;1.45;0.70;;;16.90;58.70;;;;;;6159180;23;20151;-84
2023/12/29 04:09:57;;;;;;;1.38;0.70;;;16.80;58.60;;;;;;6158810;23;20139;-85
2023/12/29 04:12:23;;;;;;;0.77;0.60;;;16.90;58.40;;;;;;6133738;23;20516;-83
2023/12/29 04:14:48;;;;;;;0.60;0.50;;;16.90;58.60;;;;;;6134506;23;20475;-83
2023/12/29 04:17:16;;;;;;;0.88;0.50;;;16.90;58.70;;;;;;6134335;23;20696;-85
2023/12/29 04:19:42;;;;;;;1.02;0.70;;;16.90;58.70;;;;;;6132294;23;20213;-83
2023/12/29 04:22:08;;;;;;;0.73;0.60;;;16.90;58.70;;;;;;6184285;23;20505;-83
2023/12/29 04:24:34;;;;;;;1.20;0.60;;;16.90;58.80;;;;;;6185774;23;20214;-83
2023/12/29 04:27:00;;;;;;;1.02;0.93;;;16.80;58.70;;;;;;6184001;23;20131;-85
2023/12/29 04:31:56;;;;;;;1.90;0.70;;;16.80;58.70;;;;;;6187671;23;20201;-85
2023/12/29 04:34:23;;;;;;;1.30;0.70;;;16.80;58.70;;;;;;6115349;23;20154;-87
2023/12/29 04:36:54;;;;;;;0.52;0.47;;;16.80;58.70;;;;;;6214485;23;20135;-85
2023/12/29 04:39:20;;;;;;;1.10;0.70;;;16.80;58.90;;;;;;6097937;23;20195;-86
2023/12/29 04:41:46;;;;;;;1.02;0.63;;;16.80;58.80;;;;;;6124069;23;20156;-83
2023/12/29 04:44:11;;;;;;;0.60;0.60;;;16.80;58.70;;;;;;6122438;23;20179;-85
2023/12/29 04:46:37;;;;;;;1.95;0.90;;;16.80;58.60;;;;;;6097811;23;20183;-87
2023/12/29 04:49:03;;;;;;;0.85;0.57;;;16.80;58.70;;;;;;6098892;23;20160;-84
2023/12/29 04:51:29;;;;;;;1.08;0.60;;;16.80;58.70;;;;;;6098650;23;20515;-84
2023/12/29 04:53:55;;;;;;;0.93;0.60;;;16.80;58.70;;;;;;6098968;23;20241;-85
2023/12/29 04:56:20;;;;;;;1.23;0.60;;;16.80;58.70;;;;;;6099741;23;20153;-84
2023/12/29 04:58:46;;;;;;;0.90;0.68;;;16.80;58.70;;;;;;6123636;23;20191;-86
2023/12/29 05:01:12;;;;;;;1.35;0.57;;;16.80;58.90;;;;;;6099042;23;20144;-87
2023/12/29 05:03:38;;;;;;;0.80;0.55;;;16.80;58.50;;;;;;6098242;23;20148;-86
2023/12/29 05:06:04;;;;;;;0.68;0.50;;;16.80;58.70;;;;;;6098642;23;20148;-84
2023/12/29 05:08:34;;;;;;;0.70;0.60;;;16.80;58.70;;;;;;6074742;23;20523;-85
2023/12/29 05:11:01;;;;;;;0.82;0.70;;;16.80;58.80;;;;;;6027515;23;20564;-85
2023/12/29 05:13:27;;;;;;;0.70;0.50;;;16.90;58.70;;;;;;6040991;23;20157;-85
2023/12/29 05:15:52;;;;;;;0.52;0.50;;;16.80;58.80;;;;;;6064961;23;20529;-86
2023/12/29 05:18:18;;;;;;;0.80;0.60;;;16.80;58.70;;;;;;6017318;23;20252;-83
2023/12/29 05:20:44;;;;;;;1.10;0.60;;;16.80;58.70;;;;;;6040845;23;20157;-86
2023/12/29 05:23:10;;;;;;;1.02;0.70;;;16.80;58.70;;;;;;6064487;23;20159;-84
2023/12/29 05:25:36;;;;;;;1.33;0.98;;;16.80;58.80;;;;;;6041647;23;20474;-84
2023/12/29 05:28:01;;;;;;;0.80;0.70;;;16.80;58.90;;;;;;6064595;23;20262;-85
2023/12/29 05:30:27;;;;;;;0.60;0.40;;;16.80;58.80;;;;;;6040812;23;20259;-87
2023/12/29 05:32:53;;;;;;;1.02;0.73;;;16.70;58.90;;;;;;6040336;23;20502;-87
2023/12/29 05:35:20;;;;;;;0.65;0.60;;;16.80;58.80;;;;;;6017622;23;20151;-83
2023/12/29 05:37:46;;;;;;;0.90;0.70;;;16.80;58.90;;;;;;6018714;23;20200;-84
2023/12/29 05:40:12;;;;;;;1.33;0.60;;;16.80;58.80;;;;;;6041509;23;20160;-85
2023/12/29 05:42:37;;;;;;;0.65;0.63;;;16.80;59.00;;;;;;6098108;23;20152;-85
2023/12/29 05:45:03;;;;;;;0.75;0.57;;;16.70;58.90;;;;;;6165888;23;20154;-86
2023/12/29 05:47:31;;;;;;;0.70;0.60;;;16.80;58.90;;;;;;6163699;23;20489;-86
2023/12/29 05:50:00;;;;;;;0.90;0.70;;;16.70;59.00;;;;;;6113143;23;20154;-86
2023/12/29 05:52:26;;;;;;;2.20;0.57;;;16.70;59.00;;;;;;6161826;23;20162;-84
2023/12/29 05:54:53;;;;;;;0.80;0.60;;;16.70;58.80;;;;;;6164157;23;20142;-86
2023/12/29 05:57:25;;;;;;;1.55;0.68;;;16.70;58.90;;;;;;6141577;23;20548;-82
2023/12/29 05:59:51;;;;;;;0.93;0.60;;;16.70;58.80;;;;;;6162313;23;20544;-83
2023/12/29 06:02:17;;;;;;;1.10;0.60;;;16.80;58.60;;;;;;6164131;23;20562;-86
2023/12/29 06:04:46;;;;;;;0.77;0.77;;;16.80;58.70;;;;;;6162912;23;20134;-86
2023/12/29 06:07:12;;;;;;;0.70;0.70;;;16.80;58.80;;;;;;6165529;23;20192;-85
2023/12/29 06:09:40;;;;;;;1.50;0.50;;;16.80;58.60;;;;;;6190953;23;20178;-87
2023/12/29 06:12:07;;;;;;;0.60;0.60;;;16.80;58.50;;;;;;6217330;23;20126;-84
2023/12/29 06:14:36;;;;;;;1.67;0.60;;;16.80;58.70;;;;;;6167396;23;20146;-82
2023/12/29 06:17:03;;;;;;;1.13;0.60;;;16.80;58.70;;;;;;6191533;23;20135;-84
2023/12/29 06:19:29;;;;;;;0.80;0.55;;;16.70;58.50;;;;;;6136256;23;20744;-84
2023/12/29 06:21:58;;;;;;;1.38;0.70;;;16.80;58.70;;;;;;6160975;23;20170;-85
2023/12/29 06:24:23;;;;;;;0.88;0.60;;;16.80;58.70;;;;;;6096568;23;20159;-84
2023/12/29 06:26:56;;;;;;;0.55;0.50;;;16.80;58.70;;;;;;6049095;23;20149;-83
2023/12/29 06:29:23;;;;;;;0.95;0.68;;;16.80;59.30;;;;;;6009703;23;20179;-85
2023/12/29 06:31:52;;;;;;;0.88;0.50;;;16.80;58.70;;;;;;6010508;23;20244;-86
2023/12/29 06:34:22;;;;;;;0.60;0.47;;;16.80;58.60;;;;;;6010458;23;20206;-85
2023/12/29 06:36:48;;;;;;;1.10;0.50;;;16.80;58.70;;;;;;5986174;23;20162;-83
2023/12/29 06:39:14;;;;;;;2.25;0.60;;;16.80;58.50;;;;;;5984744;23;20202;-85
2023/12/29 06:41:40;;;;;;;2.40;0.55;;;16.80;58.40;;;;;;6007820;23;20250;-85
2023/12/29 06:44:05;;;;;;;1.27;0.63;;;16.80;58.80;;;;;;6007768;23;20155;-84
2023/12/29 06:46:31;;;;;;;1.15;0.70;;;16.70;58.30;;;;;;5983216;23;20597;-83
2023/12/29 06:48:57;;;;;;;0.88;0.70;;;16.80;58.40;;;;;;6006993;23;20187;-83
2023/12/29 06:51:23;;;;;;;0.63;0.60;;;16.80;58.40;;;;;;5983621;23;20230;-85
2023/12/29 06:53:51;;;;;;;6.38;1.10;;;16.90;58.20;;;;;;5984706;23;20155;-86
2023/12/29 06:56:18;;;;;;;1.02;0.50;;;16.80;58.20;;;;;;5991452;23;20187;-85
2023/12/29 06:58:52;;;;;;;1.73;0.73;;;16.90;58.30;;;;;;5991921;23;20646;-84
2023/12/29 07:01:20;;;;;;;1.40;0.55;;;16.80;58.30;;;;;;5982324;23;20172;-84
2023/12/29 07:03:49;;;;;;;2.75;0.50;;;16.80;58.40;;;;;;6013131;23;20905;-84
2023/12/29 07:06:15;;;;;;;0.77;0.60;;;16.80;58.40;;;;;;6017133;23;20152;-84
2023/12/29 07:08:42;;;;;;;2.42;0.85;;;16.80;58.40;;;;;;6123496;23;20199;-87
2023/12/29 07:11:12;;;;;;;7.00;0.73;;;16.80;58.40;;;;;;6122297;23;20252;-85
2023/12/29 07:13:38;;;;;;;2.30;1.10;;;16.80;58.30;;;;;;6123023;23;20179;-86
2023/12/29 07:16:04;;;;;;;5.53;0.90;;;16.80;57.90;;;;;;6098228;23;20151;-86
2023/12/29 07:18:30;;;;;;;4.88;0.80;;;16.90;57.90;;;;;;6101394;23;20250;-86
2023/12/29 07:20:56;;;;;;;0.57;0.57;;;17.00;57.80;;;;;;6123334;23;20235;-88
2023/12/29 07:23:25;;;;;;;0.68;0.50;;;17.00;57.60;;;;;;6124073;23;20148;-85
2023/12/29 07:25:54;;;;;;;2.33;0.77;;;17.10;57.50;;;;;;6074938;23;20155;-85
2023/12/29 07:28:23;;;;;;;2.35;0.77;;;17.00;57.60;;;;;;6028556;23;20186;-86
2023/12/29 07:30:49;;;;;;;2.67;0.50;;;17.00;57.80;;;;;;6075603;23;20282;-83
2023/12/29 07:33:14;;;;;;;1.38;0.60;;;17.00;57.70;;;;;;6127221;23;20591;-85
2023/12/29 07:35:40;;;;;;;2.35;0.70;;;17.00;57.60;;;;;;6157776;23;20573;-86
2023/12/29 07:38:06;;;;;;;0.50;0.50;;;17.10;57.40;;;;;;6189954;23;20177;-86
2023/12/29 07:40:35;;;;;;;0.95;0.50;;;17.10;57.50;;;;;;6189569;23;20134;-87
2023/12/29 07:43:06;;;;;;;0.98;0.52;;;17.10;57.50;;;;;;6101285;23;20152;-87
2023/12/29 07:45:50;;;;;;;0.70;0.70;;;17.10;57.60;;;;;;6053866;23;20152;-84
2023/12/29 07:48:28;;;;;;;0.85;0.70;;;17.10;57.30;;;;;;6106392;23;20162;-83
2023/12/29 07:50:55;;;;;;;1.42;0.70;;;17.10;57.20;;;;;;6078119;23;20140;-83
2023/12/29 07:53:22;;;;;;;3.22;0.50;;;17.20;57.50;;;;;;6103545;23;20151;-87
2023/12/29 07:55:50;;;;;;;2.22;0.60;;;17.20;57.10;;;;;;6103218;23;20136;-85
2023/12/29 07:58:15;;;;;;;1.55;0.60;;;17.10;57.30;;;;;;6103163;23;20185;-83
2023/12/29 08:00:41;;;;;;;2.05;0.65;;;17.20;57.30;;;;;;6077220;23;20160;-84
2023/12/29 08:03:07;;;;;;;1.05;0.60;;;17.10;57.20;;;;;;6126510;23;20152;-83
2023/12/29 08:05:33;;;;;;;0.82;0.70;;;17.10;57.10;;;;;;6079164;23;20181;-83
2023/12/29 08:07:59;;;;;;;1.33;0.82;;;17.20;57.30;;;;;;6100927;23;20603;-82
2023/12/29 08:10:25;;;;;;;2.35;0.60;;;17.10;57.10;;;;;;6101832;23;20140;-87
2023/12/29 08:12:51;;;;;;;2.22;0.60;;;17.10;57.00;;;;;;6079943;23;20176;-84
2023/12/29 08:15:17;;;;;;;1.10;0.60;;;17.20;57.10;;;;;;6190329;23;20126;-84
2023/12/29 08:17:46;;;;;;;0.55;0.43;;;17.20;57.00;;;;;;6190942;23;20252;-83
2023/12/29 08:20:12;;;;;;;0.70;0.50;;;17.20;57.20;;;;;;6125446;23;20195;-83
2023/12/29 08:22:41;;;;;;;1.20;0.60;;;17.10;57.10;;;;;;6099210;23;20156;-85
2023/12/29 08:25:07;;;;;;;0.55;0.50;;;17.10;57.20;;;;;;6076089;23;20156;-84
2023/12/29 08:27:36;;;;;;;0.90;0.60;;;17.10;57.30;;;;;;6101133;23;20141;-83
2023/12/29 08:30:08;;;;;;;0.75;0.60;;;17.00;57.50;;;;;;6051254;23;20199;-87
2023/12/29 08:32:33;;;;;;;0.95;0.57;;;17.10;57.30;;;;;;6102986;23;20162;-86
2023/12/29 08:35:04;;;;;;;1.85;0.63;;;17.10;57.00;;;;;;6077970;23;20183;-83
2023/12/29 08:37:30;;;;;;;0.60;0.60;;;17.20;57.40;;;;;;6006538;23;20226;-86
2023/12/29 08:39:56;;;;;;;1.02;0.68;;;17.20;57.10;;;;;;6076263;23;20152;-83
2023/12/29 08:42:28;;;;;;;2.42;0.80;;;17.20;57.30;;;;;;6076230;23;20252;-85
2023/12/29 08:44:54;;;;;;;1.30;0.50;;;17.20;57.10;;;;;;6101462;23;20230;-82
2023/12/29 08:47:19;;;;;;;0.90;0.70;;;17.10;57.50;;;;;;6125257;23;20167;-84
2023/12/29 08:49:46;;;;;;;0.93;0.52;;;17.20;57.10;;;;;;6099838;23;20206;-84
2023/12/29 08:52:25;;;;;;;1.77;0.50;;;17.20;57.80;;;;;;6067127;23;20602;-85
2023/12/29 08:54:59;;;;;;;2.90;0.70;;;17.30;57.10;;;;;;6048892;23;20153;-84
2023/12/29 08:57:42;;;;;;;1.13;0.60;;;17.30;57.20;;;;;;6084535;23;20239;-87
2023/12/29 09:00:09;;;;;;;0.82;0.40;;;17.40;57.20;;;;;;6111836;23;20615;-86
2023/12/29 09:02:35;;;;;;;1.48;0.70;;;17.40;57.10;;;;;;6110001;23;20176;-84
2023/12/29 09:05:01;;;;;;;1.20;0.65;;;17.40;56.90;;;;;;6083899;23;20151;-83
2023/12/29 09:07:28;;;;;;;3.08;0.50;;;17.50;56.60;;;;;;6106170;23;20151;-83
2023/12/29 09:09:57;;;;;;;0.85;0.55;;;17.50;56.50;;;;;;6106578;23;20135;-84
2023/12/29 09:12:24;;;;;;;0.73;0.60;;;17.50;56.80;;;;;;6120627;23;20192;-88
2023/12/29 09:14:56;;;;;;;0.57;0.57;;;17.50;56.50;;;;;;6072019;23;20256;-84
2023/12/29 09:17:33;;;;;;;0.70;0.60;;;17.40;56.70;;;;;;6014197;23;20182;-89
2023/12/29 09:20:09;;;;;;;1.88;0.65;;;17.40;56.90;;;;;;5991577;23;20154;-86
2023/12/29 09:22:36;;;;;;;0.70;0.50;;;17.40;56.60;;;;;;6015859;23;20277;-87
2023/12/29 09:25:07;;;;;;;1.05;0.85;;;17.30;57.10;;;;;;6037200;23;20162;-88
2023/12/29 09:27:33;;;;;;;0.70;0.63;;;17.40;56.80;;;;;;6062525;23;20154;-86
2023/12/29 09:29:59;;;;;;;2.05;0.50;;;17.40;56.90;;;;;;6061915;23;20213;-85
2023/12/29 09:32:26;;;;;;;0.93;0.50;;;17.30;57.10;;;;;;6039765;23;20603;-86
2023/12/29 09:37:18;;;;;;;0.60;0.60;;;17.30;57.00;;;;;;6217095;23;20212;-85
2023/12/29 09:39:49;;;;;;;3.45;0.57;;;17.30;57.30;;;;;;6142832;23;20138;-84
2023/12/29 09:42:21;;;;;;;11.32;0.80;;;17.30;57.40;;;;;;6169079;23;20130;-83
2023/12/29 09:44:49;;;;;;;24.42;1.85;;;17.30;57.50;;;;;;6218564;23;20127;-84
2023/12/29 09:47:16;;;;;;;24.45;1.55;;;17.20;57.80;;;;;;6164429;23;20138;-84
2023/12/29 09:49:42;;;;;;;21.30;1.85;;;17.20;57.90;;;;;;6216984;23;20145;-86
2023/12/29 09:52:09;;;;;;;20.92;1.38;;;17.30;57.80;;;;;;6191595;23;20138;-84
2023/12/29 09:54:51;;;;;;;11.98;1.48;;;17.30;57.50;;;;;;6141831;23;20291;-87
2023/12/29 09:57:21;;;;;;;17.05;1.48;;;17.30;57.70;;;;;;6216843;23;20176;-86
2023/12/29 09:59:51;;;;;;;23.02;1.48;;;17.30;57.90;;;;;;6095059;23;20150;-83
2023/12/29 10:02:20;;;;;;;6.38;1.48;;;17.30;57.90;;;;;;6167370;23;20168;-84
2023/12/29 10:05:01;;;;;;;10.93;1.33;;;17.30;57.80;;;;;;6129437;23;20184;-82
2023/12/29 10:07:27;;;;;;;8.52;1.27;;;17.40;57.50;;;;;;6126911;23;20239;-82
2023/12/29 10:09:55;;;;;;;9.07;1.23;;;17.40;56.90;;;;;;6126087;23;20147;-82
2023/12/29 10:12:21;;;;;;;7.72;1.00;;;17.50;57.40;;;;;;6100380;23;20539;-83
2023/12/29 10:15:08;;;;;;;7.88;1.08;;;17.30;57.50;;;;;;6099764;23;20580;-82
2023/12/29 10:17:54;;;;;;;11.57;1.02;;;17.40;57.80;;;;;;6125310;23;20175;-82
2023/12/29 10:20:43;;;;;;;7.53;1.27;;;17.40;57.60;;;;;;6126467;23;20168;-83
2023/12/29 10:23:16;;;;;;;8.20;1.10;;;17.40;57.50;;;;;;6102140;23;20156;-83
2023/12/29 10:25:43;;;;;;;7.00;1.20;;;17.50;57.70;;;;;;6102823;23;20149;-81
2023/12/29 10:28:12;;;;;;;12.43;1.27;;;17.40;57.60;;;;;;6101921;23;20260;-82
2023/12/29 10:30:38;;;;;;;8.60;1.10;;;17.40;57.80;;;;;;6051063;23;20207;-83
2023/12/29 10:33:04;;;;;;;10.32;0.90;;;17.50;57.60;;;;;;6125741;23;20607;-83
2023/12/29 10:35:30;;;;;;;11.45;1.20;;;17.40;57.70;;;;;;6105308;23;20187;-82
2023/12/29 10:38:10;;;;;;;9.55;1.02;;;17.40;57.60;;;;;;6101719;23;20186;-82
2023/12/29 10:40:37;;;;;;;3.78;0.90;;;17.40;58.00;;;;;;6126172;23;20136;-82
2023/12/29 10:43:08;;;;;;;8.45;0.90;;;17.40;57.80;;;;;;6159784;23;20150;-82
2023/12/29 10:45:36;;;;;;;9.45;0.82;;;17.50;57.60;;;;;;6192559;23;20145;-81
2023/12/29 10:48:02;;;;;;;6.97;0.73;;;17.40;57.80;;;;;;6193366;23;20185;-84
2023/12/29 10:50:28;;;;;;;9.57;1.25;;;17.50;57.30;;;;;;6193474;23;20185;-83
2023/12/29 10:53:14;;;;;;;5.85;0.90;;;17.50;57.60;;;;;;6168240;23;20490;-82
2023/12/29 10:55:50;;;;;;;5.45;0.77;;;17.50;57.50;;;;;;6191948;23;20221;-81
2023/12/29 10:58:19;;;;;;;4.13;0.70;;;17.50;57.80;;;;;;6141622;23;20193;-83
2023/12/29 11:00:51;;;;;;;6.70;1.17;;;17.50;57.60;;;;;;6108514;23;20182;-83
2023/12/29 11:03:17;;;;;;;7.45;1.05;;;17.50;57.70;;;;;;6068766;23;20203;-83
2023/12/29 11:05:45;;;;;;;5.47;0.90;;;17.50;57.70;;;;;;6064755;23;20485;-83
2023/12/29 11:08:21;;;;;;;2.05;0.90;;;17.60;58.00;;;;;;6042484;23;20161;-84
2023/12/29 11:10:48;;;;;;;6.32;0.80;;;17.50;58.00;;;;;;6040451;23;20208;-83
2023/12/29 11:13:18;;;;;;;8.13;0.93;;;17.50;58.00;;;;;;6068848;23;20173;-84
2023/12/29 11:15:45;;;;;;;6.07;0.73;;;17.60;58.00;;;;;;6067552;23;20149;-82
2023/12/29 11:18:14;;;;;;;6.68;0.90;;;17.50;57.80;;;;;;6021115;23;20625;-84
2023/12/29 11:20:39;;;;;;;3.42;0.80;;;17.50;57.80;;;;;;6043025;23;20279;-82
2023/12/29 11:23:07;;;;;;;4.53;0.75;;;17.50;57.60;;;;;;6068596;23;20236;-83
2023/12/29 11:25:38;;;;;;;5.40;0.75;;;17.60;57.90;;;;;;6069371;23;20160;-83
2023/12/29 11:28:06;;;;;;;9.77;0.95;;;17.50;57.90;;;;;;6021304;23;20248;-83
2023/12/29 11:30:31;;;;;;;3.75;1.00;;;17.50;57.90;;;;;;6074531;23;20478;-82
2023/12/29 11:33:15;;;;;;;5.05;0.73;;;17.50;57.90;;;;;;6103824;23;20600;-84
2023/12/29 11:35:47;;;;;;;5.38;0.80;;;17.60;57.90;;;;;;6219722;23;20494;-82
2023/12/29 11:38:33;;;;;;;3.40;1.00;;;17.60;58.00;;;;;;6141403;23;20185;-82
2023/12/29 11:41:13;;;;;;;4.53;0.70;;;17.50;58.10;;;;;;6217991;23;20139;-84
2023/12/29 11:43:39;;;;;;;1.58;0.70;;;17.50;57.70;;;;;;6167521;23;20193;-83
2023/12/29 11:46:05;;;;;;;3.47;0.70;;;17.50;58.10;;;;;;6214901;23;20143;-83
2023/12/29 11:49:03;;;;;;;4.88;0.68;;;17.40;58.40;;;;;;6192374;23;20469;-83
2023/12/29 11:51:32;;;;;;;1.50;0.50;;;17.40;58.30;;;;;;6155821;23;20209;-83
2023/12/29 11:54:04;;;;;;;3.22;0.80;;;17.50;58.80;;;;;;6193536;23;20200;-82
2023/12/29 11:56:31;;;;;;;2.90;0.63;;;17.60;57.70;;;;;;6138911;23;20223;-83
2023/12/29 11:59:14;;;;;;;2.20;0.70;;;17.60;58.00;;;;;;6189697;23;20224;-83
2023/12/29 12:01:43;;;;;;;4.57;0.70;;;17.60;58.10;;;;;;6189234;23;20158;-84
2023/12/29 12:04:45;;;;;;;1.80;0.70;;;17.60;58.10;;;;;;6166938;23;20131;-81
2023/12/29 12:07:51;;;;;;;7.65;1.00;;;17.60;58.10;;;;;;6217038;23;20126;-81
2023/12/29 12:10:31;;;;;;;3.00;0.60;;;17.60;58.20;;;;;;6194570;23;20150;-83
2023/12/29 12:12:58;;;;;;;3.83;0.75;;;17.50;58.10;;;;;;6165309;23;20142;-82
2023/12/29 12:15:31;;;;;;;1.45;0.80;;;17.60;57.60;;;;;;6165530;23;20137;-83
2023/12/29 12:18:09;;;;;;;4.47;0.60;;;17.70;57.60;;;;;;6168369;23;20189;-82
2023/12/29 12:20:36;;;;;;;3.25;0.50;;;17.70;57.70;;;;;;6192109;23;20196;-82
2023/12/29 12:23:08;;;;;;;2.35;0.80;;;17.70;57.80;;;;;;6218498;23;20149;-82
2023/12/29 12:25:34;;;;;;;3.00;0.70;;;17.70;57.50;;;;;;6140142;23;20558;-82
2023/12/29 12:28:05;;;;;;;2.13;0.70;;;17.70;57.40;;;;;;6166514;23;20170;-83
2023/12/29 12:30:31;;;;;;;2.17;0.52;;;17.70;57.60;;;;;;6144212;23;20566;-82
2023/12/29 12:33:00;;;;;;;1.83;0.88;;;17.70;58.00;;;;;;6191546;23;20172;-82
2023/12/29 12:35:26;;;;;;;2.20;0.55;;;17.60;58.20;;;;;;6136100;23;20493;-83
2023/12/29 12:38:08;;;;;;;2.03;0.90;;;17.60;58.60;;;;;;6183652;23;20673;-83
2023/12/29 12:40:37;;;;;;;3.17;0.60;;;17.50;58.10;;;;;;6136227;23;20237;-85
2023/12/29 12:43:03;;;;;;;3.72;0.50;;;17.60;58.40;;;;;;6160948;23;20146;-82
2023/12/29 12:45:43;;;;;;;1.08;0.65;;;17.50;58.00;;;;;;6167185;23;20147;-85
2023/12/29 12:48:25;;;;;;;5.35;0.60;;;17.60;57.90;;;;;;6165134;23;20582;-84
2023/12/29 12:51:34;;;;;;;1.33;0.52;;;17.70;57.90;;;;;;6170688;23;20199;-85
2023/12/29 12:54:05;;;;;;;5.82;0.50;;;17.60;58.40;;;;;;6088305;23;20223;-83
2023/12/29 12:56:34;;;;;;;3.28;0.57;;;17.60;58.30;;;;;;6076138;23;20149;-83
2023/12/29 12:59:08;;;;;;;1.95;0.50;;;17.70;58.20;;;;;;6074467;23;20195;-83
2023/12/29 13:01:36;;;;;;;2.05;0.60;;;17.70;58.10;;;;;;6073013;23;20152;-83
2023/12/29 13:04:03;;;;;;;2.33;0.77;;;17.60;57.90;;;;;;6051166;23;20163;-83